Time;durP1;ratioP1;P1;durP2;ratioP2;P2;SDS_P1;SDS_P2;PMS_P1;PMS_P2;Temp;Humidity;BMP_temperature;BMP_pressure;BME280_temperature;BME280_humidity;BME280_pressure;Samples;Min_cycle;Max_cycle;Signal;HPM_P1;HPM_P2
2022/01/13 00:01:48;;;;;;;;;;;-3275.80;88.10;;;;;;5094426;28;19908;-68
2022/01/13 00:04:15;;;;;;;;;;;-3275.90;88.40;;;;;;5092957;28;19908;-68
2022/01/13 00:06:41;;;;;;;;;;;-3276.00;88.20;;;;;;5094255;28;20061;-68
2022/01/13 00:09:07;;;;;;;;;;;-3275.90;87.10;;;;;;5094147;28;19962;-68
2022/01/13 00:11:33;;;;;;;;;;;-3275.90;86.60;;;;;;5094215;28;19916;-68
2022/01/13 00:19:46;;;;;;;;;;;-3275.80;85.50;;;;;;5094670;28;19908;-67
2022/01/13 00:24:59;;;;;;;;;;;-3275.70;84.70;;;;;;5094238;28;20064;-68
2022/01/13 00:27:28;;;;;;;;;;;-3275.70;84.50;;;;;;5092349;28;20393;-68
2022/01/13 00:29:56;;;;;;;;;;;-3275.70;84.60;;;;;;5092630;28;19931;-68
2022/01/13 00:32:23;;;;;;;;;;;-3275.70;83.60;;;;;;5093851;28;19915;-68
2022/01/13 00:34:49;;;;;;;;;;;-3275.70;85.20;;;;;;5093797;28;20377;-68
2022/01/13 00:37:14;;;;;;;;;;;-3275.80;85.80;;;;;;5093699;28;19908;-67
2022/01/13 00:39:40;;;;;;;;;;;-3275.90;86.10;;;;;;5092459;28;19908;-68
2022/01/13 00:42:06;;;;;;;;;;;-3275.90;86.40;;;;;;5093692;28;20444;-68
2022/01/13 00:44:36;;;;;;;;;;;-3276.00;86.60;;;;;;5092396;28;19912;-68
2022/01/13 00:47:04;;;;;;;;;;;-3276.00;86.60;;;;;;5092210;28;19938;-68
2022/01/13 00:49:30;;;;;;;;;;;-3276.00;86.50;;;;;;5093549;28;19908;-68
2022/01/13 00:51:56;;;;;;;;;;;-3276.10;86.30;;;;;;5093497;28;19908;-68
2022/01/13 00:54:22;;;;;;;;;;;-3276.20;85.70;;;;;;5093499;28;19912;-66
2022/01/13 00:56:47;;;;;;;;;;;-3276.20;85.00;;;;;;5093447;28;20365;-66
2022/01/13 00:59:14;;;;;;;;;;;-3276.20;84.80;;;;;;5093402;28;19908;-66
2022/01/13 01:01:41;;;;;;;;;;;-3276.00;85.30;;;;;;5091816;28;20258;-66
2022/01/13 01:04:07;;;;;;;;;;;-3275.80;86.20;;;;;;5093335;28;20354;-67
2022/01/13 01:06:33;;;;;;;;;;;-3275.70;86.70;;;;;;5091928;28;19965;-67
2022/01/13 01:08:59;;;;;;;;;;;-3275.60;87.40;;;;;;5093212;28;19908;-68
2022/01/13 01:11:26;;;;;;;;;;;-3275.70;86.70;;;;;;5093204;28;19908;-68
2022/01/13 01:13:52;;;;;;;;;;;-3275.70;86.40;;;;;;5091937;28;19944;-68
2022/01/13 01:16:18;;;;;;;;;;;-3275.80;86.00;;;;;;5093197;28;20315;-68
2022/01/13 01:22:04;;;;;;;;;;;-3275.50;86.30;;;;;;5093146;28;20020;-68
2022/01/13 01:24:56;;;;;;;;;;;-3275.50;86.50;;;;;;5093144;28;19909;-68
2022/01/13 01:27:20;;;;;;;;;;;-3275.70;86.80;;;;;;5092602;28;20294;-68
2022/01/13 01:29:54;;;;;;;;;;;-3275.90;86.60;;;;;;5093335;28;19908;-68
2022/01/13 01:32:20;;;;;;;;;;;-3276.00;86.20;;;;;;5093055;28;19931;-68
2022/01/13 01:34:56;;;;;;;;;;;-3276.20;85.60;;;;;;5092974;28;20365;-66
2022/01/13 01:37:24;;;;;;;;;;;-3276.30;85.20;;;;;;5092950;28;19915;-66
2022/01/13 01:39:49;;;;;;;;;;;-3276.30;84.70;;;;;;5092963;28;20282;-66
2022/01/13 01:42:18;;;;;;;;;;;-3276.10;84.50;;;;;;5091630;28;19915;-65
2022/01/13 01:44:45;;;;;;;;;;;-3276.00;85.10;;;;;;5092927;28;19918;-66
2022/01/13 01:47:13;;;;;;;;;;;-3275.80;85.30;;;;;;5092800;28;19919;-68
2022/01/13 01:49:41;;;;;;;;;;;-3275.70;85.70;;;;;;5093205;28;19908;-68
2022/01/13 01:52:07;;;;;;;;;;;-3275.60;86.50;;;;;;5092794;28;19908;-67
2022/01/13 01:54:33;;;;;;;;;;;-3275.40;87.10;;;;;;5092816;28;19912;-68
2022/01/13 01:56:59;;;;;;;;;;;-3275.40;86.90;;;;;;5093014;28;19934;-68
2022/01/13 01:59:28;;;;;;;;;;;-3275.40;86.80;;;;;;5092779;28;19978;-68
2022/01/13 02:01:54;;;;;;;;;;;-3275.60;86.50;;;;;;5092741;28;20319;-67
2022/01/13 02:04:20;;;;;;;;;;;-3275.60;86.20;;;;;;5092548;28;19970;-68
2022/01/13 02:06:46;;;;;;;;;;;-3275.60;86.20;;;;;;5092680;28;19912;-68
2022/01/13 02:09:14;;;;;;;;;;;-3275.70;86.20;;;;;;5092647;28;19909;-68
2022/01/13 02:11:44;;;;;;;;;;;-3275.80;85.90;;;;;;5092666;28;19908;-68
2022/01/13 02:19:15;;;;;;;;;;;-3275.80;85.40;;;;;;5110954;27;19919;-68
2022/01/13 02:21:40;;;;;;;;;;;-3275.50;85.10;;;;;;5110864;28;19912;-68
2022/01/13 02:24:06;;;;;;;;;;;-3275.40;85.00;;;;;;5110827;28;19908;-68
2022/01/13 02:26:32;;;;;;;;;;;-3275.10;84.90;;;;;;5110768;28;19962;-68
2022/01/13 02:28:57;;;;;;;;;;;-3274.80;84.70;;;;;;5110644;28;19909;-68
2022/01/13 02:31:24;;;;;;;;;;;-3274.60;86.20;;;;;;5110714;28;19908;-68
2022/01/13 02:33:49;;;;;;;;;;;-3274.70;87.00;;;;;;5110621;28;19916;-68
2022/01/13 02:36:16;;;;;;;;;;;-3274.60;87.00;;;;;;5110662;28;19908;-67
2022/01/13 02:38:41;;;;;;;;;;;-3274.60;87.30;;;;;;5110801;28;19919;-68
2022/01/13 02:41:07;;;;;;;;;;;-3274.60;87.70;;;;;;5110509;28;19908;-68
2022/01/13 02:43:34;;;;;;;;;;;-3274.60;88.50;;;;;;5110463;28;19958;-68
2022/01/13 02:46:18;;;;;;;;;;;-3274.60;89.00;;;;;;5110435;28;19961;-68
2022/01/13 02:48:44;;;;;;;;;;;-3274.70;89.50;;;;;;5143363;27;19912;-68
2022/01/13 02:51:10;;;;;;;;;;;-3274.60;89.50;;;;;;5110367;28;19915;-68
2022/01/13 02:53:35;;;;;;;;;;;-3274.60;89.70;;;;;;5109000;28;19908;-68
2022/01/13 02:56:04;;;;;;;;;;;-3274.80;89.80;;;;;;5110237;28;19947;-68
2022/01/13 02:58:30;;;;;;;;;;;-3274.90;89.70;;;;;;5108753;28;20011;-68
2022/01/13 03:00:56;;;;;;;;;;;-3275.00;88.00;;;;;;5110100;28;20325;-68
2022/01/13 03:03:21;;;;;;;;;;;-3275.00;87.10;;;;;;5110030;28;19999;-68
2022/01/13 03:05:47;;;;;;;;;;;-3275.10;86.70;;;;;;5110045;28;19915;-68
2022/01/13 03:08:13;;;;;;;;;;;-3275.00;86.30;;;;;;5109906;28;19953;-68
2022/01/13 03:10:38;;;;;;;;;;;-3275.00;86.00;;;;;;5109918;28;19908;-68
2022/01/13 03:13:05;;;;;;;;;;;-3275.00;86.10;;;;;;5109941;28;19912;-68
2022/01/13 03:15:30;;;;;;;;;;;-3275.00;86.50;;;;;;5108605;28;20341;-68
2022/01/13 03:17:56;;;;;;;;;;;-3275.00;86.30;;;;;;5119566;28;19947;-68
2022/01/13 03:20:22;;;;;;;;;;;-3275.20;85.60;;;;;;5130238;28;19908;-68
2022/01/13 03:22:47;;;;;;;;;;;-3275.10;85.10;;;;;;5130216;28;19911;-68
2022/01/13 03:25:14;;;;;;;;;;;-3275.10;85.30;;;;;;5130137;28;20327;-68
2022/01/13 03:27:41;;;;;;;;;;;-3275.20;85.70;;;;;;5130065;28;19907;-68
2022/01/13 03:30:08;;;;;;;;;;;-3275.10;85.30;;;;;;5119013;28;19931;-68
2022/01/13 03:32:34;;;;;;;;;;;-3274.90;85.10;;;;;;5116660;28;19908;-68
2022/01/13 03:35:00;;;;;;;;;;;-3274.90;85.60;;;;;;5116313;28;20424;-68
2022/01/13 03:37:26;;;;;;;;;;;-3275.10;86.00;;;;;;5116155;28;19911;-68
2022/01/13 03:39:52;;;;;;;;;;;-3275.20;86.00;;;;;;5116204;28;19915;-68
2022/01/13 03:42:18;;;;;;;;;;;-3275.30;86.00;;;;;;5116084;28;19908;-68
2022/01/13 03:44:43;;;;;;;;;;;-3275.10;85.90;;;;;;5116137;28;19908;-68
2022/01/13 03:47:10;;;;;;;;;;;-3275.10;85.80;;;;;;5116095;28;19915;-68
2022/01/13 03:49:36;;;;;;;;;;;-3275.10;86.00;;;;;;5115990;28;19915;-68
2022/01/13 03:52:04;;;;;;;;;;;-3275.10;86.40;;;;;;5115975;28;20285;-68
2022/01/13 03:54:35;;;;;;;;;;;-3275.10;86.50;;;;;;5097667;28;19908;-68
2022/01/13 03:57:10;;;;;;;;;;;-3275.10;86.60;;;;;;5097457;28;19997;-67
2022/01/13 03:59:56;;;;;;;;;;;-3275.10;86.00;;;;;;5115817;28;19908;-68
2022/01/13 04:02:22;;;;;;;;;;;-3274.80;84.70;;;;;;5115742;28;19973;-68
2022/01/13 04:04:48;;;;;;;;;;;-3274.40;84.90;;;;;;5116304;28;20273;-68
2022/01/13 04:07:17;;;;;;;;;;;-3274.30;85.30;;;;;;5115742;28;19912;-68
2022/01/13 04:09:43;;;;;;;;;;;-3274.20;86.20;;;;;;5115511;28;20373;-68
2022/01/13 04:12:11;;;;;;;;;;;-3274.20;86.80;;;;;;5115553;28;20422;-68
2022/01/13 04:14:44;;;;;;;;;;;-3274.20;87.40;;;;;;5115506;28;20285;-68
2022/01/13 04:18:18;;;;;;;;;;;-3274.30;87.80;;;;;;5172973;27;19911;-67
2022/01/13 04:20:44;;;;;;;;;;;-3274.40;86.80;;;;;;5172867;27;20427;-66
2022/01/13 04:23:10;;;;;;;;;;;-3274.60;85.20;;;;;;5173137;27;19993;-67
2022/01/13 04:25:36;;;;;;;;;;;-3274.80;84.40;;;;;;5172818;27;20005;-66
2022/01/13 04:28:03;;;;;;;;;;;-3274.70;83.60;;;;;;5172707;27;19949;-66
2022/01/13 04:30:49;;;;;;;;;;;-3274.70;83.90;;;;;;5172764;27;20002;-66
2022/01/13 04:33:15;;;;;;;;;;;-3274.70;83.90;;;;;;5154017;27;19936;-66
2022/01/13 04:35:41;;;;;;;;;;;-3274.70;83.90;;;;;;5172657;27;19933;-66
2022/01/13 04:38:06;;;;;;;;;;;-3274.50;83.70;;;;;;5153800;27;19915;-67
2022/01/13 04:40:33;;;;;;;;;;;-3274.40;84.50;;;;;;5172478;27;19907;-67
2022/01/13 04:42:58;;;;;;;;;;;-3274.40;85.10;;;;;;5172533;27;19941;-67
2022/01/13 04:45:25;;;;;;;;;;;-3274.40;85.60;;;;;;5172407;27;19907;-67
2022/01/13 04:47:52;;;;;;;;;;;-3274.50;85.80;;;;;;5172358;27;19907;-67
2022/01/13 04:50:19;;;;;;;;;;;-3274.60;85.80;;;;;;5172155;27;19907;-67
2022/01/13 04:52:44;;;;;;;;;;;-3274.60;85.30;;;;;;5172310;27;19929;-66
2022/01/13 04:55:12;;;;;;;;;;;-3274.60;84.70;;;;;;5172560;27;20267;-67
2022/01/13 04:57:38;;;;;;;;;;;-3274.60;84.60;;;;;;5172116;27;19917;-66
2022/01/13 05:00:05;;;;;;;;;;;-3274.50;84.20;;;;;;5153458;27;19907;-66
2022/01/13 05:02:30;;;;;;;;;;;-3274.40;84.60;;;;;;5172053;27;19915;-67
2022/01/13 05:04:56;;;;;;;;;;;-3274.40;85.00;;;;;;5172072;27;20291;-66
2022/01/13 05:07:21;;;;;;;;;;;-3274.40;85.50;;;;;;5171506;27;19929;-67
2022/01/13 05:09:47;;;;;;;;;;;-3274.50;85.40;;;;;;5156900;27;19911;-66
2022/01/13 05:12:12;;;;;;;;;;;-3274.50;85.40;;;;;;5150976;27;20303;-66
2022/01/13 05:14:38;;;;;;;;;;;-3274.50;85.30;;;;;;5151083;27;19976;-67
2022/01/13 05:19:36;;;;;;;;;;;-3274.70;85.30;;;;;;5150866;27;19911;-66
2022/01/13 05:24:36;;;;;;;;;;;-3274.90;83.80;;;;;;5150806;27;19908;-66
2022/01/13 06:16:40;;;;;;;;;;;-3274.80;83.30;;;;;;5107717;27;19916;-68
2022/01/13 06:19:05;;;;;;;;;;;-3274.00;86.10;;;;;;5088982;28;19919;-68
2022/01/13 06:21:31;;;;;;;;;;;-3274.00;86.80;;;;;;5090178;28;19951;-67
2022/01/13 06:23:57;;;;;;;;;;;-3274.00;86.80;;;;;;5088424;28;20392;-67
2022/01/13 06:26:22;;;;;;;;;;;-3274.10;86.30;;;;;;5088294;28;19965;-68
2022/01/13 06:28:48;;;;;;;;;;;-3274.00;86.00;;;;;;5089429;28;19920;-68
2022/01/13 06:31:13;;;;;;;;;;;-3274.00;85.70;;;;;;5089304;28;19912;-67
2022/01/13 06:33:39;;;;;;;;;;;-3273.90;85.50;;;;;;5089212;28;19912;-68
2022/01/13 06:38:05;;;;;;;;;;;-3274.00;84.40;;;;;;5105409;27;19916;-68
2022/01/13 06:40:30;;;;;;;;;;;-3274.30;82.70;;;;;;5090121;28;20011;-68
2022/01/13 06:42:56;;;;;;;;;;;-3274.50;81.50;;;;;;5088791;28;19917;-68
2022/01/13 06:45:21;;;;;;;;;;;-3274.50;81.20;;;;;;5089656;28;19999;-68
2022/01/13 06:47:47;;;;;;;;;;;-3274.50;81.40;;;;;;5088737;28;19913;-68
2022/01/13 06:50:13;;;;;;;;;;;-3274.60;81.60;;;;;;5089166;28;19912;-68
2022/01/13 06:57:21;;;;;;;;;;;-3274.60;81.40;;;;;;5088644;27;19923;-68
2022/01/13 06:59:47;;;;;;;;;;;-3274.70;82.10;;;;;;5065810;28;19912;-67
2022/01/13 07:02:13;;;;;;;;;;;-3274.80;81.70;;;;;;5063731;28;19919;-67
2022/01/13 07:07:02;;;;;;;;;;;-3274.80;81.80;;;;;;5130869;27;19916;-68
2022/01/13 07:09:27;;;;;;;;;;;-3274.80;81.80;;;;;;5129494;27;19912;-68
2022/01/13 07:11:53;;;;;;;;;;;-3274.80;81.80;;;;;;5116493;27;19912;-68
2022/01/13 07:28:30;;;;;;;;;;;-3274.50;81.60;;;;;;5088148;28;20019;-68
2022/01/13 07:32:58;;;;;;;;;;;-3274.30;83.00;;;;;;5089313;27;20324;-67
2022/01/13 07:39:01;;;;;;;;;;;-3274.20;83.50;;;;;;5100894;27;20263;-67
2022/01/13 07:42:07;;;;;;;;;;;-3274.30;84.70;;;;;;5092585;27;20616;-68
2022/01/13 07:44:32;;;;;;;;;;;-3274.30;85.80;;;;;;5093193;28;19912;-68
2022/01/13 07:49:46;;;;;;;;;;;-3274.40;86.40;;;;;;5103752;27;20400;-68
2022/01/13 07:52:11;;;;;;;;;;;-3274.50;86.40;;;;;;5126138;28;19935;-68
2022/01/13 07:54:37;;;;;;;;;;;-3274.50;86.00;;;;;;5116064;28;19916;-68
2022/01/13 07:57:03;;;;;;;;;;;-3274.60;85.60;;;;;;5108995;28;19912;-68
2022/01/13 07:59:29;;;;;;;;;;;-3274.70;85.80;;;;;;5126753;28;19946;-68
2022/01/13 08:01:55;;;;;;;;;;;-3274.70;86.00;;;;;;5107722;28;19912;-69
2022/01/13 08:04:21;;;;;;;;;;;-3274.80;85.80;;;;;;5103791;28;19927;-68
2022/01/13 08:06:47;;;;;;;;;;;-3274.90;84.90;;;;;;5122341;28;19912;-68
2022/01/13 08:10:34;;;;;;;;;;;-3275.00;85.40;;;;;;5104183;27;19920;-66
2022/01/13 08:25:17;;;;;;;;;;;-3275.20;87.00;;;;;;5120847;27;19930;-66
2022/01/13 08:27:42;;;;;;;;;;;-3276.10;84.40;;;;;;5106982;28;19969;-66
2022/01/13 08:30:08;;;;;;;;;;;-3276.30;83.00;;;;;;5120632;27;19912;-66
2022/01/13 08:32:34;;;;;;;;;;;-3276.40;84.00;;;;;;5125404;27;20389;-66
2022/01/13 08:34:59;;;;;;;;;;;-3276.40;81.40;;;;;;5111912;28;19955;-66
2022/01/13 08:37:25;;;;;;;;;;;-3276.50;80.40;;;;;;5119000;28;19947;-66
2022/01/13 08:41:54;;;;;;;;;;;-3276.60;80.50;;;;;;5108683;27;19916;-67
2022/01/13 08:44:19;;;;;;;;;;;-3276.70;82.20;;;;;;5087465;28;19920;-66
2022/01/13 08:49:25;;;;;;;;;;;0.00;83.10;;;;;;5088365;27;19922;-66
2022/01/13 08:54:24;;;;;;;;;;;0.10;81.40;;;;;;5101023;27;19924;-69
2022/01/13 08:56:49;;;;;;;;;;;0.30;81.00;;;;;;5111552;28;20373;-69
2022/01/13 08:59:15;;;;;;;;;;;0.40;81.40;;;;;;5072520;28;19932;-70
2022/01/13 09:01:41;;;;;;;;;;;0.60;82.20;;;;;;5080610;28;20358;-70
2022/01/13 09:05:54;;;;;;;;;;;0.80;82.40;;;;;;5101139;27;19916;-67
2022/01/13 09:13:33;;;;;;;;;;;1.10;81.50;;;;;;5109549;27;19920;-67
2022/01/13 09:16:00;;;;;;;;;;;1.40;79.10;;;;;;5094198;28;19912;-67
2022/01/13 09:18:33;;;;;;;;;;;1.50;78.60;;;;;;5093510;28;19959;-66
2022/01/13 09:20:59;;;;;;;;;;;1.60;79.30;;;;;;5091604;28;19913;-67
2022/01/13 09:23:24;;;;;;;;;;;1.60;78.40;;;;;;5089499;28;19919;-66
2022/01/13 09:30:09;;;;;;;;;;;1.70;77.40;;;;;;5088078;27;20325;-68
2022/01/13 09:32:36;;;;;;;;;;;2.10;78.20;;;;;;5087670;28;19919;-68
2022/01/13 09:40:25;;;;;;;;;;;2.30;76.80;;;;;;5107632;27;19922;-67
2022/01/13 09:42:51;;;;;;;;;;;2.80;72.70;;;;;;5080826;28;19913;-67
2022/01/13 09:45:17;;;;;;;;;;;3.20;69.00;;;;;;5073394;28;19962;-66
2022/01/13 09:49:38;;;;;;;;;;;3.40;68.00;;;;;;5079041;27;2048824;-67
2022/01/13 09:52:03;;;;;;;;;;;3.80;67.50;;;;;;5138098;27;20254;-67
2022/01/13 09:56:54;;;;;;;;;;;3.90;67.30;;;;;;5103677;27;19923;-69
2022/01/13 09:59:19;;;;;;;;;;;3.80;66.80;;;;;;5093927;28;19913;-69
2022/01/13 10:01:45;;;;;;;;;;;3.80;68.40;;;;;;5086870;28;19913;-68
2022/01/13 10:04:10;;;;;;;;;;;3.70;66.40;;;;;;5091758;28;19958;-68
2022/01/13 10:17:23;;;;;;;;;;;4.20;64.80;;;;;;5116825;28;19912;-66
2022/01/13 10:19:50;;;;;;;;;;;4.20;63.50;;;;;;5120224;28;19918;-66
2022/01/13 10:22:50;;;;;;;;;;;4.40;62.20;;;;;;5108576;27;19917;-66
2022/01/13 10:25:34;;;;;;;;;;;4.60;61.30;;;;;;5102041;28;19918;-66
2022/01/13 10:28:19;;;;;;;;;;;4.90;58.90;;;;;;5097091;28;19912;-66
2022/01/13 10:33:22;;;;;;;;;;;5.10;57.50;;;;;;5103689;27;19915;-68
2022/01/13 10:35:48;;;;;;;;;;;5.20;59.50;;;;;;5128775;27;19920;-68
2022/01/13 10:44:09;;;;;;;;;;;5.40;57.80;;;;;;5112469;27;19917;-66
2022/01/13 10:46:55;;;;;;;;;;;5.40;59.00;;;;;;5068014;28;19913;-66
2022/01/13 10:49:29;;;;;;;;;;;5.60;57.20;;;;;;5057817;28;19917;-66
2022/01/13 10:52:14;;;;;;;;;;;5.50;58.50;;;;;;5070843;28;20023;-66
2022/01/13 10:54:39;;;;;;;;;;;5.50;57.10;;;;;;5062619;28;19963;-66
2022/01/13 10:57:19;;;;;;;;;;;5.60;56.70;;;;;;5072607;28;19960;-66
2022/01/13 11:07:15;;;;;;;;;;;5.70;57.80;;;;;;5110518;27;19912;-66
2022/01/13 11:09:43;;;;;;;;;;;5.90;53.60;;;;;;5109621;28;20004;-66
2022/01/13 11:14:31;;;;;;;;;;;6.00;53.80;;;;;;5104561;27;2000731;-66
2022/01/13 11:16:57;;;;;;;;;;;6.40;54.90;;;;;;5172783;27;19911;-66
2022/01/13 11:19:23;;;;;;;;;;;6.70;52.70;;;;;;5172831;27;19907;-66
2022/01/13 11:21:49;;;;;;;;;;;6.90;50.80;;;;;;5172034;27;19914;-66
2022/01/13 11:26:04;;;;;;;;;;;7.10;51.50;;;;;;5110912;27;20382;-68
2022/01/13 11:28:30;;;;;;;;;;;7.40;50.50;;;;;;5144136;27;19912;-66
2022/01/13 11:33:51;;;;;;;;;;;7.60;50.60;;;;;;5110946;27;20289;-66
2022/01/13 11:40:26;;;;;;;;;;;7.40;48.00;;;;;;5110895;27;19954;-68
2022/01/13 11:45:24;;;;;;;;;;;7.60;48.10;;;;;;5110072;27;19927;-68
2022/01/13 11:50:21;;;;;;;;;;;7.90;46.30;;;;;;5110867;27;19912;-66
2022/01/13 11:52:52;;;;;;;;;;;8.40;46.30;;;;;;5110531;28;20073;-66
2022/01/13 11:55:22;;;;;;;;;;;9.10;43.80;;;;;;5109133;28;19908;-67
2022/01/13 11:57:48;;;;;;;;;;;9.80;42.30;;;;;;5123727;28;19912;-67
2022/01/13 12:00:16;;;;;;;;;;;10.70;41.00;;;;;;5110498;28;19961;-67
2022/01/13 12:02:43;;;;;;;;;;;11.80;40.40;;;;;;5121491;28;20010;-67
2022/01/13 12:10:23;;;;;;;;;;;12.90;36.70;;;;;;5111611;27;19916;-66
2022/01/13 12:12:49;;;;;;;;;;;13.30;34.70;;;;;;5124151;28;20280;-66
2022/01/13 12:15:19;;;;;;;;;;;13.00;33.40;;;;;;5119102;28;19963;-66
2022/01/13 12:17:45;;;;;;;;;;;13.00;34.00;;;;;;5123801;28;20379;-66
2022/01/13 12:20:20;;;;;;;;;;;12.50;34.60;;;;;;5114733;28;19955;-66
2022/01/13 12:24:02;;;;;;;;;;;12.60;34.10;;;;;;5119711;27;19920;-68
2022/01/13 12:26:30;;;;;;;;;;;13.30;34.80;;;;;;5109617;28;19998;-67
2022/01/13 12:29:08;;;;;;;;;;;14.00;33.20;;;;;;5109184;28;19916;-67
2022/01/13 12:31:34;;;;;;;;;;;14.80;31.10;;;;;;5103209;28;19912;-68
2022/01/13 12:33:59;;;;;;;;;;;15.30;30.60;;;;;;5102107;28;19926;-68
2022/01/13 12:36:25;;;;;;;;;;;16.10;29.20;;;;;;5108228;28;19935;-68
2022/01/13 12:38:57;;;;;;;;;;;16.30;28.10;;;;;;5107710;28;20284;-67
2022/01/13 12:41:25;;;;;;;;;;;16.70;28.20;;;;;;5105921;28;19916;-67
2022/01/13 12:44:02;;;;;;;;;;;16.40;28.10;;;;;;5110719;28;19938;-67
2022/01/13 12:46:28;;;;;;;;;;;15.80;29.00;;;;;;5110213;28;19955;-66
2022/01/13 12:48:54;;;;;;;;;;;14.90;28.80;;;;;;5111676;28;19966;-66
2022/01/13 12:51:21;;;;;;;;;;;14.10;30.10;;;;;;5108227;28;19912;-66
2022/01/13 12:53:47;;;;;;;;;;;13.50;30.80;;;;;;5111710;28;19982;-66
2022/01/13 12:57:58;;;;;;;;;;;13.10;31.40;;;;;;5129004;27;19919;-67
2022/01/13 13:00:25;;;;;;;;;;;13.30;32.50;;;;;;5138753;27;20382;-66
2022/01/13 13:02:52;;;;;;;;;;;13.70;31.70;;;;;;5116676;27;19912;-67
2022/01/13 13:05:36;;;;;;;;;;;13.80;31.00;;;;;;5128603;27;19959;-66
2022/01/13 13:08:02;;;;;;;;;;;13.80;30.30;;;;;;5118282;27;19912;-67
2022/01/13 13:11:29;;;;;;;;;;;13.90;29.90;;;;;;5109210;27;19916;-66
2022/01/13 13:20:48;;;;;;;;;;;14.40;31.00;;;;;;5096725;27;19916;-66
2022/01/13 13:24:37;;;;;;;;;;;12.50;34.00;;;;;;5112650;27;20021;-67
2022/01/13 13:27:02;;;;;;;;;;;12.00;34.90;;;;;;5106853;28;19957;-67
2022/01/13 13:36:19;;;;;;;;;;;12.70;34.90;;;;;;5110959;27;20266;-66
2022/01/13 13:38:46;;;;;;;;;;;13.20;33.50;;;;;;5111318;28;19947;-66
2022/01/13 13:43:30;;;;;;;;;;;13.40;33.10;;;;;;5063899;28;19917;-66
2022/01/13 13:46:03;;;;;;;;;;;14.40;31.30;;;;;;5068202;28;19913;-66
2022/01/13 13:48:29;;;;;;;;;;;14.50;30.90;;;;;;5071325;28;20374;-66
2022/01/13 13:51:13;;;;;;;;;;;14.40;30.10;;;;;;5125492;27;19912;-66
2022/01/13 13:56:57;;;;;;;;;;;13.90;32.70;;;;;;5106542;27;19920;-66
2022/01/13 13:59:27;;;;;;;;;;;13.50;31.70;;;;;;5122066;28;19915;-66
2022/01/13 14:02:05;;;;;;;;;;;13.50;31.20;;;;;;5093994;28;20288;-66
2022/01/13 14:04:37;;;;;;;;;;;13.40;30.60;;;;;;5102939;28;19915;-66
2022/01/13 14:07:03;;;;;;;;;;;13.70;30.70;;;;;;5111588;28;19912;-67
2022/01/13 14:09:36;;;;;;;;;;;13.90;30.80;;;;;;5126438;28;19912;-67
2022/01/13 14:12:01;;;;;;;;;;;14.60;29.90;;;;;;5114872;28;19908;-67
2022/01/13 14:14:34;;;;;;;;;;;14.80;30.00;;;;;;5119405;28;20393;-67
2022/01/13 14:17:00;;;;;;;;;;;14.90;29.70;;;;;;5101328;28;19912;-67
2022/01/13 14:19:25;;;;;;;;;;;15.10;30.30;;;;;;5104875;28;19918;-67
2022/01/13 14:21:52;;;;;;;;;;;15.30;29.20;;;;;;5106050;28;19914;-67
2022/01/13 14:24:34;;;;;;;;;;;15.30;29.80;;;;;;5106463;28;20010;-67
2022/01/13 14:29:33;;;;;;;;;;;15.10;30.20;;;;;;5010673;28;19918;-66
2022/01/13 14:32:14;;;;;;;;;;;14.80;31.70;;;;;;5007168;28;19919;-65
2022/01/13 14:34:47;;;;;;;;;;;14.40;31.20;;;;;;5005206;28;19966;-66
2022/01/13 14:37:13;;;;;;;;;;;13.80;32.70;;;;;;5006623;28;19914;-66
2022/01/13 14:43:34;;;;;;;;;;;13.60;33.60;;;;;;5101236;27;19930;-66
2022/01/13 14:46:07;;;;;;;;;;;13.60;34.00;;;;;;5101903;28;19916;-66
2022/01/13 14:48:34;;;;;;;;;;;14.00;33.60;;;;;;5092075;28;19920;-66
2022/01/13 14:51:02;;;;;;;;;;;14.40;33.00;;;;;;5095725;28;19912;-66
2022/01/13 14:53:27;;;;;;;;;;;14.00;33.50;;;;;;5088063;28;19912;-67
2022/01/13 14:55:53;;;;;;;;;;;13.80;34.10;;;;;;5087946;28;19982;-66
2022/01/13 14:58:19;;;;;;;;;;;13.80;33.30;;;;;;5094616;28;20269;-66
2022/01/13 15:00:46;;;;;;;;;;;13.80;33.00;;;;;;5097892;28;19923;-66
2022/01/13 15:03:11;;;;;;;;;;;13.80;33.50;;;;;;5098004;28;19915;-66
2022/01/13 15:06:40;;;;;;;;;;;13.70;34.50;;;;;;5108720;27;19934;-65
2022/01/13 15:09:07;;;;;;;;;;;13.50;34.10;;;;;;5082533;28;19912;-66
2022/01/13 15:14:19;;;;;;;;;;;13.10;33.50;;;;;;5089598;27;2033106;-66
2022/01/13 15:16:44;;;;;;;;;;;12.20;35.00;;;;;;5148617;27;19912;-66
2022/01/13 15:19:12;;;;;;;;;;;12.00;36.40;;;;;;5150241;27;19912;-66
2022/01/13 15:21:39;;;;;;;;;;;12.20;34.90;;;;;;5146098;27;19918;-66
2022/01/13 15:24:06;;;;;;;;;;;12.20;35.60;;;;;;5150290;27;19925;-66
2022/01/13 15:26:32;;;;;;;;;;;12.10;36.30;;;;;;5147650;27;20002;-66
2022/01/13 15:28:57;;;;;;;;;;;11.60;37.50;;;;;;5137816;27;20034;-66
2022/01/13 15:31:23;;;;;;;;;;;11.40;38.30;;;;;;5131213;27;20013;-66
2022/01/13 15:33:48;;;;;;;;;;;11.20;38.90;;;;;;5130708;27;19919;-66
2022/01/13 15:36:14;;;;;;;;;;;10.90;40.20;;;;;;5148818;27;20011;-66
2022/01/13 15:38:40;;;;;;;;;;;10.50;39.00;;;;;;5150248;27;19919;-66
2022/01/13 15:41:06;;;;;;;;;;;10.10;39.00;;;;;;5150767;27;19912;-66
2022/01/13 15:43:32;;;;;;;;;;;9.50;40.10;;;;;;5150287;27;19915;-68
2022/01/13 15:45:58;;;;;;;;;;;9.00;42.20;;;;;;5149813;27;19911;-68
2022/01/13 15:48:23;;;;;;;;;;;8.60;44.30;;;;;;5150301;27;20395;-70
2022/01/13 16:33:23;;;;;;;;;;;5.20;62.60;;;;;;5106102;27;19916;-66
2022/01/13 16:35:48;;;;;;;;;;;5.40;59.10;;;;;;5090903;28;19938;-66
2022/01/13 16:38:15;;;;;;;;;;;5.40;57.40;;;;;;5103224;28;19938;-66
2022/01/13 16:40:41;;;;;;;;;;;5.40;59.00;;;;;;5086224;28;19999;-66
2022/01/13 16:43:09;;;;;;;;;;;5.30;61.20;;;;;;5097869;28;20355;-67
2022/01/13 16:45:36;;;;;;;;;;;5.20;61.80;;;;;;5097942;28;19916;-67
2022/01/13 16:48:05;;;;;;;;;;;5.10;61.70;;;;;;5091561;28;19920;-67
2022/01/13 16:50:31;;;;;;;;;;;5.00;62.20;;;;;;5083047;28;19930;-67
2022/01/13 16:53:03;;;;;;;;;;;4.90;63.40;;;;;;5094323;28;20019;-66
2022/01/13 16:55:29;;;;;;;;;;;4.80;63.90;;;;;;5092494;28;19913;-66
2022/01/13 16:57:55;;;;;;;;;;;4.80;63.80;;;;;;5107164;28;19916;-66
2022/01/13 17:00:21;;;;;;;;;;;4.70;63.90;;;;;;5110150;28;19912;-66
2022/01/13 17:02:47;;;;;;;;;;;4.70;65.30;;;;;;5109935;28;19920;-66
2022/01/13 17:05:12;;;;;;;;;;;4.60;66.50;;;;;;5100546;28;20019;-66
2022/01/13 17:07:38;;;;;;;;;;;4.40;67.10;;;;;;5096449;28;20374;-69
2022/01/13 17:10:06;;;;;;;;;;;4.40;67.90;;;;;;5094286;28;19995;-69
2022/01/13 17:12:32;;;;;;;;;;;4.40;68.10;;;;;;5093078;28;20065;-69
2022/01/13 17:14:58;;;;;;;;;;;4.30;68.60;;;;;;5089618;28;20011;-69
2022/01/13 17:17:24;;;;;;;;;;;4.20;68.90;;;;;;5088132;28;19909;-69
2022/01/13 17:19:49;;;;;;;;;;;4.20;69.30;;;;;;5093580;28;20038;-69
2022/01/13 17:22:15;;;;;;;;;;;4.10;69.60;;;;;;5089018;28;19916;-69
2022/01/13 17:24:41;;;;;;;;;;;4.00;69.90;;;;;;5088068;28;20002;-69
2022/01/13 17:27:06;;;;;;;;;;;4.00;70.10;;;;;;5095223;28;19912;-69
2022/01/13 17:29:32;;;;;;;;;;;4.00;70.50;;;;;;5100528;28;19919;-68
2022/01/13 17:31:58;;;;;;;;;;;4.00;70.60;;;;;;5098150;28;19927;-68
2022/01/13 17:34:23;;;;;;;;;;;4.00;70.60;;;;;;5089162;28;19955;-68
2022/01/13 17:36:49;;;;;;;;;;;4.00;70.50;;;;;;5088596;28;19947;-69
2022/01/13 17:39:18;;;;;;;;;;;3.90;70.60;;;;;;5086022;28;20331;-68
2022/01/13 17:41:47;;;;;;;;;;;3.90;71.10;;;;;;5087452;28;20007;-69
2022/01/13 17:44:13;;;;;;;;;;;3.90;71.30;;;;;;5077852;28;19909;-69
2022/01/13 17:46:39;;;;;;;;;;;3.80;71.30;;;;;;5081092;28;19912;-69
2022/01/13 17:49:05;;;;;;;;;;;3.80;71.30;;;;;;5079975;28;20339;-69
2022/01/13 17:51:30;;;;;;;;;;;3.70;71.60;;;;;;5073564;28;19965;-69
2022/01/13 17:53:56;;;;;;;;;;;3.70;71.80;;;;;;5075046;28;19912;-69
2022/01/13 17:56:21;;;;;;;;;;;3.70;71.90;;;;;;5076862;28;19932;-69
2022/01/13 17:58:47;;;;;;;;;;;3.60;72.00;;;;;;5086534;28;19965;-69
2022/01/13 18:01:12;;;;;;;;;;;3.60;73.20;;;;;;5087127;28;19912;-69
2022/01/13 18:06:57;;;;;;;;;;;3.60;73.50;;;;;;5094603;27;20285;-68
2022/01/13 18:09:22;;;;;;;;;;;3.50;74.00;;;;;;5111059;28;19911;-68
2022/01/13 18:11:48;;;;;;;;;;;3.30;73.90;;;;;;5108961;28;19908;-68
2022/01/13 18:15:37;;;;;;;;;;;3.30;74.20;;;;;;5147398;27;19922;-68
2022/01/13 18:20:02;;;;;;;;;;;3.00;75.30;;;;;;5094596;27;19916;-69
2022/01/13 18:24:28;;;;;;;;;;;3.00;76.30;;;;;;5110383;27;19912;-69
2022/01/13 18:27:14;;;;;;;;;;;2.90;76.90;;;;;;5093608;27;20320;-68
2022/01/13 18:29:40;;;;;;;;;;;2.90;77.40;;;;;;5090314;28;19913;-68
2022/01/13 18:37:56;;;;;;;;;;;2.90;77.60;;;;;;5095453;27;1988552;-67
2022/01/13 18:40:22;;;;;;;;;;;2.80;77.30;;;;;;5171862;27;20364;-67
2022/01/13 18:43:53;;;;;;;;;;;2.90;76.70;;;;;;5110881;27;20377;-69
2022/01/13 18:46:19;;;;;;;;;;;3.00;75.80;;;;;;5110245;28;19995;-69
2022/01/13 18:52:08;;;;;;;;;;;2.90;75.60;;;;;;5131308;27;20280;-66
2022/01/13 18:57:05;;;;;;;;;;;2.90;76.00;;;;;;5110712;27;19916;-69
2022/01/13 18:59:31;;;;;;;;;;;2.90;76.00;;;;;;5109581;28;19918;-69